Paraburdoo, Western Australia

5:48 PM AWST on October 02, 2014 (GMT +0800)
Paraburdoo | Change Station
CLOSE
Current Station
Airport
Location: Paraburdoo Airport,
Elevation: 1404 ft
Nearby Weather Stations

Elev 1404 ft 23.17 °S, 117.75 °E | Updated 48 minutes ago

Clear
Clear
93 °F
Feels Like 93 °F
N
13
Wind Variable Wind from West

Today
High -- | Low -- °F
--% Chance of Precip.
Yesterday
High -- | Low -- °F
Precip. -- in
5:49 AM 6:08 PM
First Quarter, 57% visible
Pressure 29.92 in
Visibility 6.2 miles
Clouds
Dew Point 36 °F
Humidity 13%
Rainfall 0.00 in
Snow Depth Not available.
UV Not available.
Pollen Not available.
Air Quality Not available.
Flu Activity Not available.
METAR YPBO 020900Z AUTO 26011KT 230V290 9999 // NCD 34/02 Q1013

More Conditions Fewer Conditions

Pressure 29.92 in
Visibility 6.2 miles
Clouds
Dew Point 36 °F
Humidity 13%
Rainfall 0.00 in
Snow Depth Not available.
UV Not available.
Pollen Not available.
Air Quality Not available.
Flu Activity Not available.
METAR YPBO 020900Z AUTO 26011KT 230V290 9999 // NCD 34/02 Q1013

More Conditions Fewer Conditions

10-Day Weather Forecast

Almanac

Astronomy

Oct. 02, 2014 Rise Set
Actual Time 5:49 AM AWST 6:08 PM AWST
Civil Twilight 5:26 AM AWST 6:30 PM AWST
Nautical Twilight 5:00 AM AWST 6:57 PM AWST
Astronomical Twilight 4:33 AM AWST 7:23 PM AWST
Moon 11:51 AM AWST 12:27 AM AWST
Length of Visible Light 13h 04m
Length of Day
12h 19m
Tomorrow will be 1m 20s longer.
First Quarter, 57% of the Moon is Illuminated
Today
First Quarter
Oct 8
Full
Oct 15
Last Quarter
Oct 23
New
Oct 30
First Quarter

Yesterday's Extremes

Country Highs Country Lows

Community

WunderPhotos

Upload Photos

1,758,206 photos uploaded!

WunderBlogs® & News

By Dr. Jeff Masters
Director of Meteorology, Weather Underground
By Kari Strenfel
Meteorologist, Weather Underground
By Christopher C. Burt
Weather Historian, Weather Underground
October 2, 2014
October 2, 2014
October 2, 2014

Nearby

Snow Depth

Not available.

Earthquake Activity

City Distance Mag. Time & Date
No recent earthquake activity has been reported nearby.
Minimum magnitude displayed is 2.5.

Coastal Water Temperatures

Place Temperature
No Stations Reporting

Nearby Weather Stations